Flight Track Log - Related Links

Times and Time Zones

All times are in EDT time to prevent confusion due to time zone crossing. See the N288PA flight status page for this flight to view local times or setup timezone preferences in your user account.

Time Position Orientation Groundspeed Altitude Reporting Facility
EDT Latitude Longitude Course Direction KTS MPH feet Rate Location/Type
Tue 02:36:03 PM 33.6870 -112.1050 267° West 80 92 2,100  Level FlightAware ADS-B
Tue 02:36:40 PM 33.6860 -112.1210 266° West 83 96 2,400 474 Climbing FlightAware ADS-B
Tue 02:37:19 PM 33.6850 -112.1390 266° West 84 97 2,700 23 Climbing FlightAware ADS-B
Tue 02:37:59 PM 33.6850 -112.1590 270° West 87 100 19 Descending FlightAware ADS-B
Tue 02:38:39 PM 33.6860 -112.1800 273° West 89 102 61 Level FlightAware ADS-B
Tue 02:39:16 PM 33.6860 -112.1970 270° West 86 99 62 Level FlightAware ADS-B
Tue 02:39:49 PM 33.6850 -112.2130 266° West 91 105 63 Level FlightAware ADS-B
Tue 02:40:21 PM 33.6840 -112.2290 266° West 89 102 63 Level FlightAware ADS-B
Tue 02:40:43 PM 33.6830 -112.2400 264° West 91 105 64 Level FlightAware ADS-B
Tue 02:41:25 PM 33.6850 -112.2600 277° West 86 99 64 Level FlightAware ADS-B
Tue 02:42:01 PM 33.6860 -112.2790 274° West 101 116 65 Level FlightAware ADS-B
Tue 02:42:31 PM 33.6870 -112.2970 274° West 102 117 66 Level FlightAware ADS-B
Tue 02:42:55 PM 33.6870 -112.3100 270° West 100 115 66 Level FlightAware ADS-B
Tue 02:43:31 PM 33.6860 -112.3300 267° West 94 108 67 Level FlightAware ADS-B
Tue 02:44:03 PM 33.6860 -112.3470 270° West 96 110 67 Level FlightAware ADS-B
Tue 02:44:39 PM 33.6860 -112.3670 270° West 95 109 68 Level FlightAware ADS-B
Tue 02:45:03 PM 33.6840 -112.3790 259° West 94 108 69 Level FlightAware ADS-B
Tue 02:45:44 PM 33.6820 -112.4000 263° West 96 110 69 Level FlightAware ADS-B
Tue 02:46:14 PM 33.6810 -112.4150 265° West 87 100 70 Level FlightAware ADS-B
Tue 02:46:44 PM 33.6790 -112.4300 261° West 95 109 71 Level FlightAware ADS-B
Tue 02:47:17 PM 33.6770 -112.4470 262° West 100 115 71 Level FlightAware ADS-B
Tue 02:47:47 PM 33.6760 -112.4640 266° West 106 122 72 Level FlightAware ADS-B
Tue 02:48:20 PM 33.6770 -112.4840 273° West 96 110 73 Level FlightAware ADS-B
Tue 02:49:06 PM 33.6760 -112.5060 267° West 86 99 73 Level FlightAware ADS-B
Tue 02:49:38 PM 33.6760 -112.5220 270° West 88 101 75 Level FlightAware ADS-B
Tue 02:50:16 PM 33.6760 -112.5400 270° West 92 106 75 Level FlightAware ADS-B
Tue 02:50:42 PM 33.6760 -112.5520 270° West 92 106 76 Level FlightAware ADS-B
Tue 02:53:00 PM 33.6703 -112.6321 265° West  Level FlightAware Approximate
Tue 02:54:00 PM 33.6678 -112.6669 265° West  Level FlightAware Approximate
Tue 02:55:00 PM 33.6819 -112.6884 345° North  Level FlightAware Approximate
Tue 02:56:00 PM 33.7099 -112.6977 345° North  Level FlightAware Approximate
Tue 02:57:00 PM 33.7380 -112.7070 345° North  Level FlightAware Approximate
Tue 02:58:00 PM 33.7660 -112.7164 345° North  Level FlightAware Approximate
Tue 02:59:00 PM 33.7941 -112.7257 345° North  Level FlightAware Approximate
Tue 03:00:00 PM 33.8221 -112.7350 345° North  Level FlightAware Approximate
Tue 03:01:00 PM 33.8501 -112.7444 345° North  Level FlightAware Approximate
Tue 03:02:00 PM 33.8782 -112.7538 345° North  Level FlightAware Approximate
Tue 03:03:00 PM 33.9062 -112.7631 345° North  Level FlightAware Approximate
Tue 03:04:00 PM 33.9343 -112.7725 344° North  Level FlightAware Approximate
Tue 03:05:00 PM 33.9623 -112.7819 344° North  Level FlightAware Approximate
Tue 03:06:00 PM 33.9561 -112.7566 116° Southeast  Level FlightAware Approximate
Tue 03:07:00 PM 33.9435 -112.7250 116° Southeast  Level FlightAware Approximate
Tue 03:08:00 PM 33.9309 -112.6934 116° Southeast  Level FlightAware Approximate
Tue 03:09:00 PM 33.9183 -112.6618 116° Southeast  Level FlightAware Approximate
Tue 03:10:00 PM 33.9057 -112.6302 116° Southeast  Level FlightAware Approximate
Tue 03:11:00 PM 33.8931 -112.5986 116° Southeast  Level FlightAware Approximate
Tue 03:12:00 PM 33.8805 -112.5670 116° Southeast  Level FlightAware Approximate
Tue 03:13:00 PM 33.8679 -112.5354 116° Southeast  Level FlightAware Approximate
Tue 03:14:00 PM 33.8553 -112.5039 116° Southeast  Level FlightAware Approximate
Tue 03:15:00 PM 33.8426 -112.4723 116° Southeast  Level FlightAware Approximate
Tue 03:16:00 PM 33.8300 -112.4408 116° Southeast  Level FlightAware Approximate
Tue 03:17:00 PM 33.8173 -112.4092 116° Southeast  Level FlightAware Approximate
Tue 03:18:00 PM 33.8046 -112.3777 116° Southeast  Level FlightAware Approximate
Tue 03:19:00 PM 33.7920 -112.3462 116° Southeast  Level FlightAware Approximate
Tue 03:20:00 PM 33.7793 -112.3147 116° Southeast  Level FlightAware Approximate
Tue 03:21:00 PM 33.7666 -112.2832 121° Southeast  Level FlightAware Approximate
Tue 03:22:00 PM 33.7516 -112.2532 121° Southeast  Level FlightAware Approximate
Tue 03:23:00 PM 33.7387 -112.2218 116° Southeast  Level FlightAware Approximate
Tue 03:24:00 PM 33.7261 -112.1903 116° Southeast  Level FlightAware Approximate
Tue 03:25:00 PM 33.7135 -112.1588 116° Southeast  Level FlightAware Approximate
Tue 03:26:00 PM 33.7009 -112.1273 116° Southeast  Level FlightAware Approximate
Tue 03:27:00 PM 33.6883 -112.0958 116° Southeast  Level FlightAware Approximate
Tue 03:27:12 PM 33.9200 -112.7090 116° Southeast 98 113  Level FlightAware ADS-B
Tue 03:27:37 PM 33.9140 -112.7160 224° Southwest 89 102 274 Level FlightAware ADS-B
Tue 03:28:03 PM 33.9110 -112.7260 250° West 89 102 282 Level FlightAware ADS-B
Tue 03:30:00 PM 33.8904 -112.6623 111° Southeast  Level FlightAware Approximate
Tue 03:31:00 PM 33.8798 -112.6297 111° Southeast  Level FlightAware Approximate
Tue 03:31:44 PM 33.8940 -112.6590 111° Southeast 117 135  Level FlightAware ADS-B
Tue 03:32:16 PM 33.8870 -112.6450 121° Southeast 93 107 402 Level FlightAware ADS-B
Tue 03:32:44 PM 33.8800 -112.6350 130° Southeast 93 107 425 Level FlightAware ADS-B
Tue 03:33:50 PM 33.8690 -112.6070 115° Southeast 109 125 448 Level FlightAware ADS-B
Tue 03:34:10 PM 33.8770 -112.6020 27° Northeast 103 119 513 Level FlightAware ADS-B
Tue 03:34:44 PM 33.8800 -112.5840 79° East 95 109 537 Level FlightAware ADS-B
Tue 03:35:15 PM 33.8830 -112.5680 77° East 94 108 582 Level FlightAware ADS-B
Tue 03:35:40 PM 33.8840 -112.5570 84° East 94 108 631 Level FlightAware ADS-B
Tue 03:36:59 PM 33.8920 -112.5110 78° East 95 109 676 Level FlightAware ADS-B
Tue 03:37:10 PM 33.8920 -112.5050 90° East 95 109 876 Level FlightAware ADS-B
Tue 03:38:01 PM 33.8870 -112.4770 102° East 109 125 914 Level FlightAware ADS-B
Tue 03:38:29 PM 33.8870 -112.4600 90° East 113 130 1,141 Level FlightAware ADS-B
Tue 03:39:05 PM 33.8870 -112.4340 90° East 135 155 1,322 Level FlightAware ADS-B
Tue 03:39:47 PM 33.8820 -112.4040 101° East 138 159 1,660 Level FlightAware ADS-B
Tue 03:40:21 PM 33.8780 -112.3780 100° East 139 160 2,364 Level FlightAware ADS-B
Tue 03:40:49 PM 33.8730 -112.3570 106° East 141 162 3,600 Level FlightAware ADS-B
Tue 03:41:26 PM 33.8680 -112.3350 105° East 139 160 3,900 1,419 Climbing FlightAware ADS-B
Tue 03:41:59 PM 33.8620 -112.3070 104° East 128 147 -216 Descending FlightAware ADS-B
Tue 03:42:33 PM 33.8570 -112.2820 104° East 124 143 2,692 Level FlightAware ADS-B
Tue 03:43:17 PM 33.8530 -112.2610 103° East 123 142 3,500 405 Climbing FlightAware ADS-B
Tue 03:43:51 PM 33.8430 -112.2320 113° Southeast 122 140 -135 Descending FlightAware ADS-B
Tue 03:44:37 PM 33.8310 -112.2050 118° Southeast 112 129 503 Level FlightAware ADS-B
Tue 03:45:15 PM 33.8190 -112.1880 130° Southeast 109 125 587 Level FlightAware ADS-B
Tue 03:45:50 PM 33.8090 -112.1740 131° Southeast 109 125 681 Level FlightAware ADS-B
Tue 03:46:17 PM 33.7950 -112.1630 147° Southeast 104 120 798 Level FlightAware ADS-B
Tue 03:46:48 PM 33.7860 -112.1490 128° Southeast 107 123 920 Level FlightAware ADS-B
Tue 03:47:22 PM 33.7730 -112.1360 140° Southeast 106 122 1,117 Level FlightAware ADS-B
Tue 03:47:48 PM 33.7610 -112.1300 157° South 110 127 1,459 Level FlightAware ADS-B
Tue 03:48:34 PM 33.7400 -112.1240 167° South 100 115 1,906 Level FlightAware ADS-B
Tue 03:49:13 PM 33.7230 -112.1170 161° South 97 112 2,700 1,974 Climbing FlightAware ADS-B
Tue 03:49:50 PM 33.7110 -112.1030 136° Southeast 95 109 2,500 -176 Descending FlightAware ADS-B
Tue 03:50:21 PM 33.7050 -112.0890 117° Southeast 99 114 2,500  Level FlightAware ADS-B
Tue 03:50:50 PM 33.7060 -112.0730 86° East 99 114 2,500  Level FlightAware ADS-B
Tue 03:51:27 PM 33.7070 -112.0570 86° East 95 109 2,500 -160 Level FlightAware ADS-B
Tue 03:54:00 PM 33.6883 -112.0826 270° West  Level Estimated
Tue 03:55:13 PM 33.6890 -112.0980 270° West 77 89 1,800  Level FlightAware ADS-B
Tue 03:55:51 PM 33.6830 -112.1090 237° Southwest 82 94 2,200 636 Climbing FlightAware ADS-B
Tue 03:56:19 PM 33.6720 -112.1060 167° South 88 101 2,500 400 Climbing FlightAware ADS-B
Tue 03:56:51 PM 33.6690 -112.0890 102° East 110 127 2,600 91 Climbing FlightAware ADS-B
Tue 03:57:25 PM 33.6690 -112.0680 90° East 107 123 2,600  Level FlightAware ADS-B
Tue 03:57:56 PM 33.6680 -112.0500 94° East 104 120 2,600 -120 Level FlightAware ADS-B
Tue 03:58:15 PM 33.6700 -112.0410 75° East 98 113 2,500 -130 Descending FlightAware ADS-B
Tue 03:58:42 PM 33.6760 -112.0310 54° Northeast 98 113 2,500  Level FlightAware ADS-B

Login

Don't have an account? Register now (free) for customized features, flight alerts, and more!